Mountain View, Hawaii
Current Conditions -  °F | °C
As of 10:53 PM on Friday 21 Nov 2014 (Local Time) from PHTO Reporting Station
Overcast Overcast  
Wind Chill: 70°   Ceiling: 4500
Heat Index: 70°   Visibility: 10mi
Dew Point: 70°   Wind: 3mph
Humidity: 100%   Direction: 240°WSW
Pressure: 30.09"   Gusts: NA
Location:  19.55°N, 155.1°W
Report Text: PHTO 220853Z AUTO 24003KT 10SM FEW030 OVC045 21/21 A3009 RMK AO2 SLP189 60000 T02110211 51012 TSNO $
Loading
Personal Weather Stations






























Interactive Weather Map New forecast layout! Learn more

10-Day Weather Forecast

Advertisements
Track Severe Weather on mobile